createdAt,value
2022-09-21T00:00:55.366Z,84.1
2022-09-21T00:01:59.457Z,84
2022-09-21T00:03:02.890Z,84
2022-09-21T00:04:06.784Z,84
2022-09-21T00:05:09.670Z,83.8
2022-09-21T00:06:12.459Z,83.9
2022-09-21T00:07:15.618Z,83.8
2022-09-21T00:08:18.201Z,84
2022-09-21T00:09:20.794Z,83.9
2022-09-21T00:10:24.607Z,84
2022-09-21T00:11:27.610Z,84
2022-09-21T00:12:30.781Z,83.9
2022-09-21T00:13:33.879Z,84
2022-09-21T00:14:37.070Z,84.3
2022-09-21T00:15:40.520Z,84.1
2022-09-21T00:16:44.137Z,84.1
2022-09-21T00:17:47.354Z,83.6
2022-09-21T00:18:50.263Z,83.8
2022-09-21T00:19:52.772Z,84.1
2022-09-21T00:20:55.760Z,84.3
2022-09-21T00:21:58.390Z,84.2
2022-09-21T00:23:01.179Z,84.3
2022-09-21T00:24:04.321Z,84.5
2022-09-21T00:25:07.762Z,84.5
2022-09-21T00:26:10.886Z,84.6
2022-09-21T00:27:13.681Z,84.4
2022-09-21T00:28:16.286Z,84.6
2022-09-21T00:29:19.662Z,84.9
2022-09-21T00:30:22.826Z,84.8
2022-09-21T00:31:26.427Z,84.4
2022-09-21T00:32:29.445Z,84.4
2022-09-21T00:33:32.304Z,84.5
2022-09-21T00:34:35.637Z,84.4
2022-09-21T00:35:38.703Z,84.4
2022-09-21T00:36:42.161Z,84.5
2022-09-21T00:37:44.689Z,84.3
2022-09-21T00:38:47.764Z,84.3
2022-09-21T00:39:51.184Z,84.3
2022-09-21T00:40:54.608Z,84.3
2022-09-21T00:41:58.185Z,84.5
2022-09-21T00:43:00.226Z,84.5
2022-09-21T00:44:03.665Z,84.7
2022-09-21T00:45:07.049Z,84.7
2022-09-21T00:46:10.828Z,84.4
2022-09-21T00:47:14.465Z,84.3
2022-09-21T00:48:17.890Z,84.4
2022-09-21T00:49:20.603Z,84.3
2022-09-21T00:50:23.124Z,84.3
2022-09-21T00:51:26.924Z,84.6
2022-09-21T00:52:30.270Z,84.5
2022-09-21T00:53:33.420Z,84.5
2022-09-21T00:54:36.779Z,84.5
2022-09-21T00:55:39.487Z,84.5
2022-09-21T00:56:42.996Z,84.5
2022-09-21T00:57:46.235Z,84.2
2022-09-21T00:58:49.397Z,84.5
2022-09-21T00:59:52.589Z,84.2
2022-09-21T01:00:56.076Z,84.2
2022-09-21T01:01:59.675Z,84.2
2022-09-21T01:03:02.788Z,84
2022-09-21T01:04:05.589Z,84.1
2022-09-21T01:05:08.909Z,84.1
2022-09-21T01:06:14.683Z,84
2022-09-21T01:08:30.263Z,84.1
2022-09-21T01:09:33.811Z,84
2022-09-21T01:10:36.854Z,84
2022-09-21T01:11:39.428Z,84.3
2022-09-21T01:12:42.632Z,84.4
2022-09-21T01:13:46.358Z,84.4
2022-09-21T01:14:49.198Z,84.4
2022-09-21T01:15:52.384Z,84.7
2022-09-21T01:16:55.736Z,84.8
2022-09-21T01:17:59.177Z,84.6
2022-09-21T01:19:02.356Z,84.6
2022-09-21T01:20:05.699Z,84.5
2022-09-21T01:21:08.285Z,84.7
2022-09-21T01:22:12.013Z,84.6
2022-09-21T01:23:14.882Z,84.6
2022-09-21T01:24:18.690Z,84.7
2022-09-21T01:25:22.175Z,84.6
2022-09-21T01:26:25.519Z,84.3
2022-09-21T01:27:28.115Z,84.3
2022-09-21T01:28:31.341Z,84.1
2022-09-21T01:29:34.732Z,84.2
2022-09-21T01:30:37.445Z,84.1
2022-09-21T01:31:40.895Z,84.3
2022-09-21T01:32:44.217Z,84.1
2022-09-21T01:33:47.031Z,84.2
2022-09-21T01:34:50.773Z,84.3
2022-09-21T01:35:54.304Z,84.4
2022-09-21T01:36:56.546Z,84.4
2022-09-21T01:37:59.135Z,84.4
2022-09-21T01:39:02.208Z,84.3
2022-09-21T01:40:05.895Z,84.5
2022-09-21T01:41:09.464Z,84.5
2022-09-21T01:42:12.825Z,84.3
2022-09-21T01:43:14.982Z,84.4
2022-09-21T01:44:18.196Z,84.4
2022-09-21T01:45:21.637Z,84.7
2022-09-21T01:46:24.469Z,84.5
2022-09-21T01:47:28.108Z,84.6
2022-09-21T01:48:31.643Z,84.8
2022-09-21T01:49:35.122Z,84.4
2022-09-21T01:50:39.564Z,84.3
2022-09-21T01:51:42.076Z,84.4
2022-09-21T01:52:44.943Z,84.1
2022-09-21T01:53:47.793Z,84.2
2022-09-21T01:54:51.229Z,84.2
2022-09-21T01:55:54.124Z,84
2022-09-21T01:56:57.298Z,84
2022-09-21T01:58:00.163Z,83.9
2022-09-21T01:59:02.044Z,83.9
2022-09-21T02:00:05.483Z,84.1
2022-09-21T02:01:09.259Z,84.2
2022-09-21T02:02:12.462Z,84
2022-09-21T02:03:15.966Z,83.9
2022-09-21T02:04:18.832Z,83.9
2022-09-21T02:05:22.312Z,84.1
2022-09-21T02:06:25.301Z,83.8
2022-09-21T02:07:28.386Z,83.9
2022-09-21T02:08:31.814Z,84
2022-09-21T02:09:34.075Z,84.1
2022-09-21T02:10:37.491Z,84
2022-09-21T02:11:40.599Z,84.1
2022-09-21T02:12:43.124Z,84.3
2022-09-21T02:13:46.489Z,84.4
2022-09-21T02:14:49.954Z,84.5
2022-09-21T02:15:53.715Z,84.2
2022-09-21T02:16:57.963Z,84.3
2022-09-21T02:18:01.056Z,84.3
2022-09-21T02:19:03.945Z,84.3
2022-09-21T02:20:07.128Z,84.5
2022-09-21T02:21:10.866Z,84.8
2022-09-21T02:22:13.928Z,84.7
2022-09-21T02:23:17.157Z,84.8
2022-09-21T02:24:20.580Z,84.6
2022-09-21T02:25:23.929Z,84.6
2022-09-21T02:26:27.304Z,84.6
2022-09-21T02:27:30.177Z,84.7
2022-09-21T02:28:33.404Z,84.7
2022-09-21T02:29:36.190Z,84.9
2022-09-21T02:30:38.354Z,84.5
2022-09-21T02:31:41.985Z,84.7
2022-09-21T02:32:45.934Z,84.6
2022-09-21T02:33:49.469Z,84.5
2022-09-21T02:34:52.713Z,84.8
2022-09-21T02:35:55.877Z,84.6
2022-09-21T02:36:59.392Z,84.2
2022-09-21T02:38:02.479Z,84.1
2022-09-21T02:39:05.924Z,83.9
2022-09-21T02:40:09.347Z,84
2022-09-21T02:41:12.939Z,83.9
2022-09-21T02:42:16.085Z,84.4
2022-09-21T02:43:19.544Z,84.7
2022-09-21T02:44:22.062Z,84.9
2022-09-21T02:45:25.411Z,85
2022-09-21T02:46:28.979Z,85.2
2022-09-21T02:47:32.164Z,85
2022-09-21T02:48:35.930Z,85.3
2022-09-21T02:49:39.062Z,85.1
2022-09-21T02:50:42.579Z,84.8
2022-09-21T02:51:45.926Z,84.9
2022-09-21T02:52:49.860Z,84.7
2022-09-21T02:53:53.013Z,84.8
2022-09-21T02:54:56.519Z,84.6
2022-09-21T02:56:00.240Z,84.9
2022-09-21T02:57:03.967Z,85.3
2022-09-21T02:58:07.691Z,84.6
2022-09-21T02:59:10.845Z,84.6
2022-09-21T03:00:13.548Z,84.7
2022-09-21T03:01:16.622Z,84.7
2022-09-21T03:02:19.779Z,84.6
2022-09-21T03:03:22.684Z,84.8
2022-09-21T03:04:26.742Z,84.8
2022-09-21T03:05:28.890Z,84.9
2022-09-21T03:06:32.347Z,84.8
2022-09-21T03:07:35.993Z,84.8
2022-09-21T03:08:39.367Z,84.7
2022-09-21T03:09:42.552Z,84.7
2022-09-21T03:10:45.796Z,84.8
2022-09-21T03:11:48.677Z,84.8
2022-09-21T03:12:52.052Z,84.4
2022-09-21T03:13:55.025Z,84.6
2022-09-21T03:14:57.694Z,84.5
2022-09-21T03:16:00.111Z,84.3
2022-09-21T03:17:03.633Z,84.3
2022-09-21T03:18:06.499Z,84.4
2022-09-21T03:19:09.679Z,84.3
2022-09-21T03:20:12.781Z,84.5
2022-09-21T03:21:15.722Z,84.7
2022-09-21T03:22:19.153Z,84.7
2022-09-21T03:23:22.043Z,84.6
2022-09-21T03:24:25.856Z,84.7
2022-09-21T03:25:29.583Z,84.4
2022-09-21T03:26:32.744Z,84.6
2022-09-21T03:27:36.179Z,84.6
2022-09-21T03:28:39.160Z,84.5
2022-09-21T03:29:42.037Z,84.3
2022-09-21T03:30:45.077Z,84.5
2022-09-21T03:31:47.958Z,84.6
2022-09-21T03:32:50.472Z,84.7
2022-09-21T03:33:53.974Z,84.5
2022-09-21T03:34:57.081Z,84.6
2022-09-21T03:36:00.782Z,84.4
2022-09-21T03:37:03.644Z,84.4
2022-09-21T03:38:06.730Z,84.1
2022-09-21T03:39:09.780Z,84.1
2022-09-21T03:40:12.701Z,84.2
2022-09-21T03:41:15.809Z,84
2022-09-21T03:43:57.093Z,83.9
2022-09-21T03:44:59.970Z,83.9
2022-09-21T03:46:03.608Z,83.9
2022-09-21T03:47:06.990Z,83.9
2022-09-21T03:48:10.335Z,84.1
2022-09-21T03:49:13.859Z,84.2
2022-09-21T03:50:16.787Z,84.3
2022-09-21T03:51:20.465Z,84.5
2022-09-21T03:52:24.068Z,84.6
2022-09-21T03:53:27.466Z,84.5
2022-09-21T03:54:30.257Z,84.5
2022-09-21T03:55:33.770Z,84.6
2022-09-21T03:56:36.185Z,84.6
2022-09-21T03:57:39.060Z,84.6
2022-09-21T03:58:42.488Z,84.6
2022-09-21T03:59:45.094Z,84.8
2022-09-21T04:00:47.968Z,85
2022-09-21T04:01:50.971Z,84.9
2022-09-21T04:02:54.549Z,84.9
2022-09-21T04:03:57.905Z,84.9
2022-09-21T04:05:01.372Z,84.8
2022-09-21T04:06:04.422Z,84.8
2022-09-21T04:07:07.577Z,84.8
2022-09-21T04:08:10.172Z,85
2022-09-21T04:09:13.509Z,85
2022-09-21T04:10:16.384Z,84.5
2022-09-21T04:11:19.556Z,84.6
2022-09-21T04:12:22.368Z,84.6
2022-09-21T04:13:25.512Z,84.9
2022-09-21T04:14:28.588Z,84.9
2022-09-21T04:15:32.004Z,85
2022-09-21T04:16:34.964Z,84.9
2022-09-21T04:17:37.388Z,85
2022-09-21T04:18:40.179Z,85.1
2022-09-21T04:19:43.326Z,85.2
2022-09-21T04:20:45.830Z,85.2
2022-09-21T04:21:49.126Z,85
2022-09-21T04:22:52.006Z,84.9
2022-09-21T04:23:55.466Z,84.9
2022-09-21T04:24:58.906Z,84.7
2022-09-21T04:26:01.796Z,84.8
2022-09-21T04:27:05.243Z,84.7
2022-09-21T04:28:07.759Z,84.8
2022-09-21T04:29:10.550Z,84.7
2022-09-21T04:30:14.191Z,84.8
2022-09-21T04:31:17.639Z,84.5
2022-09-21T04:34:38.695Z,84.5
2022-09-21T04:35:41.741Z,84.4
2022-09-21T04:36:44.715Z,84.5
2022-09-21T04:37:48.124Z,84.8
2022-09-21T04:38:52.220Z,84.9
2022-09-21T04:39:55.649Z,84.7
2022-09-21T04:40:58.804Z,84.7
2022-09-21T04:42:02.553Z,84.7
2022-09-21T04:43:06.004Z,84.7
2022-09-21T04:44:09.257Z,84.7
2022-09-21T04:45:12.156Z,84.7
2022-09-21T04:46:15.208Z,84.8
2022-09-21T04:47:17.751Z,84.5
2022-09-21T04:48:20.899Z,84.4
2022-09-21T04:49:23.608Z,84.6
2022-09-21T04:50:26.674Z,85
2022-09-21T04:51:29.536Z,85.3
2022-09-21T04:52:32.627Z,85.2
2022-09-21T04:53:36.044Z,84.9
2022-09-21T04:54:39.490Z,84.9
2022-09-21T04:55:42.669Z,84.8
2022-09-21T04:56:46.464Z,84.9
2022-09-21T04:57:49.894Z,84.8
2022-09-21T04:58:53.612Z,85.4
2022-09-21T04:59:56.116Z,85.1
2022-09-21T05:00:58.900Z,85.2
2022-09-21T05:02:01.798Z,85.1
2022-09-21T05:03:04.514Z,86
2022-09-21T05:04:07.442Z,86.4
2022-09-21T05:05:10.977Z,85.9
2022-09-21T05:06:14.756Z,85.8
2022-09-21T05:07:18.124Z,86
2022-09-21T05:08:20.645Z,86.9
2022-09-21T05:09:23.831Z,86.1
2022-09-21T05:10:27.879Z,86.2
2022-09-21T05:11:30.198Z,86.1
2022-09-21T05:12:33.560Z,85.8
2022-09-21T05:13:36.794Z,85.6
2022-09-21T05:14:41.542Z,85.8
2022-09-21T05:15:45.308Z,85.8
2022-09-21T05:16:48.392Z,85.7
2022-09-21T05:17:51.823Z,86.3
2022-09-21T05:18:55.236Z,87.2
2022-09-21T05:19:58.021Z,86.9
2022-09-21T05:21:00.622Z,86.5
2022-09-21T05:22:03.702Z,86.3
2022-09-21T05:23:06.689Z,86.1
2022-09-21T05:24:09.023Z,86.4
2022-09-21T05:25:12.275Z,86.2
2022-09-21T05:26:15.983Z,86.6
2022-09-21T05:27:18.499Z,86.5
2022-09-21T05:28:22.300Z,86.3
2022-09-21T05:29:25.132Z,86.3
2022-09-21T05:30:28.855Z,86.2
2022-09-21T05:31:32.753Z,86.3
2022-09-21T05:32:35.816Z,86.2
2022-09-21T05:33:38.953Z,86.9
2022-09-21T05:34:41.463Z,86.5
2022-09-21T05:35:45.105Z,86.4
2022-09-21T05:36:48.255Z,86.3
2022-09-21T05:37:51.243Z,85.8
2022-09-21T05:38:54.615Z,85.9
2022-09-21T05:39:57.595Z,86.2
2022-09-21T05:41:00.354Z,86.2
2022-09-21T05:42:04.329Z,86
2022-09-21T05:43:07.390Z,87.4
2022-09-21T05:44:11.217Z,87.5
2022-09-21T05:45:14.392Z,86.8
2022-09-21T05:46:17.838Z,86.6
2022-09-21T05:47:20.895Z,86.2
2022-09-21T05:48:24.227Z,86
2022-09-21T05:49:27.460Z,86.5
2022-09-21T05:50:30.245Z,87
2022-09-21T05:51:33.014Z,87.4
2022-09-21T05:52:36.485Z,88
2022-09-21T05:53:39.555Z,87.6
2022-09-21T05:54:42.436Z,87.1
2022-09-21T05:55:45.569Z,87
2022-09-21T05:56:48.877Z,87
2022-09-21T05:57:52.316Z,86.8
2022-09-21T05:58:55.834Z,86.9
2022-09-21T05:59:58.936Z,88
2022-09-21T06:01:02.205Z,87.7
2022-09-21T06:02:05.482Z,87.5
2022-09-21T06:03:08.781Z,87.3
2022-09-21T06:04:11.645Z,86.7
2022-09-21T06:05:14.333Z,87
2022-09-21T06:06:17.105Z,86.7
2022-09-21T06:07:20.395Z,87.2
2022-09-21T06:08:23.454Z,86.9
2022-09-21T06:09:26.612Z,87.2
2022-09-21T06:10:29.479Z,87.3
2022-09-21T06:11:32.615Z,87.3
2022-09-21T06:12:36.128Z,87.4
2022-09-21T06:13:40.173Z,87.9
2022-09-21T06:14:43.232Z,87.7
2022-09-21T06:15:46.036Z,87.2
2022-09-21T06:16:49.182Z,86.8
2022-09-21T06:17:52.885Z,86.9
2022-09-21T06:18:56.323Z,86.8
2022-09-21T06:19:59.392Z,86.7
2022-09-21T06:21:02.853Z,86.9
2022-09-21T06:22:06.334Z,87.5
2022-09-21T06:23:09.780Z,87.7
2022-09-21T06:24:12.835Z,88.3
2022-09-21T06:25:15.424Z,88.3
2022-09-21T06:26:18.871Z,88.1
2022-09-21T06:27:21.727Z,87.5
2022-09-21T06:28:24.873Z,87.3
2022-09-21T06:29:28.671Z,86.6
2022-09-21T06:30:32.381Z,86.8
2022-09-21T06:31:35.428Z,86.8
2022-09-21T06:32:38.763Z,86.4
2022-09-21T06:33:48.973Z,86
2022-09-21T06:34:52.383Z,85.6
2022-09-21T06:35:56.091Z,85.4
2022-09-21T06:36:59.149Z,85.3
2022-09-21T06:38:02.300Z,85.6
2022-09-21T06:39:05.289Z,85.4
2022-09-21T06:40:08.290Z,85.6
2022-09-21T06:41:12.125Z,85.3
2022-09-21T06:42:17.649Z,85.1
2022-09-21T06:43:20.537Z,85.5
2022-09-21T06:44:24.334Z,86.2
2022-09-21T06:45:27.788Z,86.2
2022-09-21T06:46:31.125Z,85.9
2022-09-21T06:47:34.624Z,86.8
2022-09-21T06:48:37.070Z,87.1
2022-09-21T06:49:44.069Z,86.5
2022-09-21T06:50:47.122Z,86
2022-09-21T06:51:49.923Z,85.9
2022-09-21T06:52:53.087Z,85.9
2022-09-21T06:53:55.884Z,85.6
2022-09-21T06:54:59.601Z,85.3
2022-09-21T06:56:02.226Z,85.1
2022-09-21T06:57:05.123Z,85.2
2022-09-21T06:58:09.256Z,86
2022-09-21T07:01:45.282Z,86.2
2022-09-21T07:02:48.896Z,86.4
2022-09-21T07:03:52.041Z,85.9
2022-09-21T07:04:55.223Z,85.8
2022-09-21T07:05:58.990Z,85.6
2022-09-21T07:07:05.937Z,85.6
2022-09-21T07:10:17.239Z,85.3
2022-09-21T07:11:24.124Z,85.2
2022-09-21T07:12:27.581Z,84.9
2022-09-21T07:13:30.644Z,84.9
2022-09-21T07:14:33.993Z,85.4
2022-09-21T07:15:37.262Z,85.6
2022-09-21T07:16:40.725Z,85.5
2022-09-21T07:17:52.135Z,85.4
2022-09-21T07:19:15.585Z,84.8
2022-09-21T07:20:19.245Z,85.2
2022-09-21T07:21:22.186Z,85
2022-09-21T07:22:25.142Z,85.3
2022-09-21T07:23:27.847Z,86.1
2022-09-21T07:24:31.643Z,85.5
2022-09-21T07:25:35.356Z,86.1
2022-09-21T07:26:37.801Z,85.8
2022-09-21T07:27:41.242Z,85.8
2022-09-21T07:28:44.595Z,85.8
2022-09-21T07:29:47.664Z,85.7
2022-09-21T07:30:50.811Z,85.3
2022-09-21T07:31:54.145Z,85.5
2022-09-21T07:32:57.785Z,85.3
2022-09-21T07:34:01.311Z,85.3
2022-09-21T07:35:04.767Z,85.5
2022-09-21T07:36:08.311Z,85.3
2022-09-21T07:37:11.183Z,84.7
2022-09-21T07:38:14.385Z,85.9
2022-09-21T07:39:17.177Z,85.6
2022-09-21T07:40:26.221Z,85.8
2022-09-21T07:41:28.744Z,85.6
2022-09-21T07:42:32.463Z,85.6
2022-09-21T07:43:35.985Z,85.1
2022-09-21T07:44:39.065Z,84.6
2022-09-21T07:45:42.852Z,84.5
2022-09-21T07:46:49.622Z,84.5
2022-09-21T07:47:52.781Z,84.2
2022-09-21T07:48:56.358Z,84.6
2022-09-21T07:49:59.723Z,85.1
2022-09-21T07:51:03.255Z,84.2
2022-09-21T07:52:12.102Z,84.6
2022-09-21T07:53:14.990Z,84.4
2022-09-21T07:54:17.948Z,83.9
2022-09-21T07:55:22.032Z,84.6
2022-09-21T07:56:24.961Z,84.6
2022-09-21T07:57:28.402Z,84.3
2022-09-21T07:58:31.809Z,83.8
2022-09-21T07:59:34.870Z,83.9
2022-09-21T08:00:38.038Z,83.3
2022-09-21T08:01:41.202Z,82.9
2022-09-21T08:02:49.393Z,82.5
2022-09-21T08:05:46.603Z,82.9
2022-09-21T08:06:50.323Z,82.6
2022-09-21T08:07:53.221Z,82.2
2022-09-21T08:08:59.275Z,81.9
2022-09-21T08:10:02.525Z,82.1
2022-09-21T08:11:05.953Z,81.5
2022-09-21T08:12:08.950Z,81.3
2022-09-21T08:13:12.608Z,81.3
2022-09-21T08:14:15.583Z,81.4
2022-09-21T08:15:51.263Z,81.2
2022-09-21T08:16:54.979Z,80.9
2022-09-21T08:17:57.576Z,80.4
2022-09-21T08:19:01.022Z,80
2022-09-21T08:20:03.802Z,79.5
2022-09-21T08:21:06.356Z,79.7
2022-09-21T08:22:10.307Z,79.7
2022-09-21T08:23:13.798Z,79.8
2022-09-21T08:24:17.588Z,79.7
2022-09-21T08:25:21.585Z,79.2
2022-09-21T08:26:24.790Z,78.8
2022-09-21T08:27:27.664Z,79.2
2022-09-21T08:28:31.078Z,79
2022-09-21T08:29:33.673Z,78.1
2022-09-21T08:30:36.452Z,77.9
2022-09-21T08:31:39.636Z,77.7
2022-09-21T08:32:52.520Z,77.1
2022-09-21T08:33:56.135Z,76.5
2022-09-21T08:34:59.301Z,76.2
2022-09-21T08:36:01.180Z,75.5
2022-09-21T08:37:04.346Z,75
2022-09-21T08:38:08.198Z,74.6
2022-09-21T08:39:11.457Z,74.1
2022-09-21T08:40:14.793Z,74.6
2022-09-21T08:41:18.083Z,74.1
2022-09-21T08:42:21.231Z,73.9
2022-09-21T08:43:24.413Z,73.3
2022-09-21T08:44:27.130Z,72.3
2022-09-21T08:45:30.757Z,70.7
2022-09-21T08:46:34.017Z,70.2
2022-09-21T08:47:37.379Z,70.7
2022-09-21T08:48:40.767Z,70.6
2022-09-21T08:49:43.994Z,70.4
2022-09-21T08:50:47.343Z,71.3
2022-09-21T08:51:50.348Z,71.3
2022-09-21T08:52:54.075Z,70.4
2022-09-21T08:53:58.086Z,69.4
2022-09-21T08:55:01.629Z,67.9
2022-09-21T08:56:05.324Z,67
2022-09-21T08:57:08.296Z,67.8
2022-09-21T08:58:12.005Z,68.2
2022-09-21T08:59:15.396Z,68.3
2022-09-21T09:00:18.373Z,67.2
2022-09-21T09:01:21.784Z,66.7
2022-09-21T09:02:25.603Z,65.9
2022-09-21T09:03:28.100Z,65.4
2022-09-21T09:04:31.158Z,65.3
2022-09-21T09:05:34.012Z,64.6
2022-09-21T09:06:37.176Z,64.3
2022-09-21T09:07:40.244Z,64.2
2022-09-21T09:08:42.793Z,63.4
2022-09-21T09:09:46.887Z,63.6
2022-09-21T09:10:50.347Z,63.8
2022-09-21T09:11:53.428Z,63.6
2022-09-21T09:12:56.854Z,62.3
2022-09-21T09:13:59.806Z,60.9
2022-09-21T09:15:02.874Z,59.8
2022-09-21T09:16:06.430Z,59
2022-09-21T09:17:09.807Z,58
2022-09-21T09:18:12.880Z,57.4
2022-09-21T09:19:15.483Z,57.1
2022-09-21T09:20:19.200Z,56.4
2022-09-21T09:21:33.347Z,56.7
2022-09-21T09:22:36.419Z,56.5
2022-09-21T09:23:39.760Z,56.3
2022-09-21T09:24:43.231Z,55.8
2022-09-21T09:25:47.357Z,55.1
2022-09-21T09:26:51.373Z,55.8
2022-09-21T09:27:54.090Z,55.8
2022-09-21T09:28:57.487Z,54.9
2022-09-21T09:30:04.976Z,55.9
2022-09-21T09:31:07.692Z,54.8
2022-09-21T09:32:11.861Z,54.5
2022-09-21T09:33:14.851Z,52.9
2022-09-21T09:34:18.293Z,52.9
2022-09-21T09:35:21.011Z,52.3
2022-09-21T09:37:00.592Z,53.1
2022-09-21T09:38:03.676Z,53.5
2022-09-21T09:39:07.508Z,52.2
2022-09-21T09:40:11.622Z,52.6
2022-09-21T09:41:15.860Z,53.1
2022-09-21T09:42:19.244Z,52.2
2022-09-21T09:43:22.747Z,52.4
2022-09-21T09:44:25.463Z,52.4
2022-09-21T09:45:28.455Z,52.4
2022-09-21T09:46:31.505Z,51.9
2022-09-21T09:47:34.685Z,51.5
2022-09-21T09:48:37.833Z,50.6
2022-09-21T09:49:40.730Z,50.5
2022-09-21T09:50:44.097Z,51.6
2022-09-21T09:51:46.689Z,52.7
2022-09-21T09:52:50.131Z,53.4
2022-09-21T09:53:53.499Z,53.3
2022-09-21T09:54:56.682Z,53.3
2022-09-21T09:56:00.367Z,51.4
2022-09-21T09:57:04.164Z,49.7
2022-09-21T09:58:07.678Z,49.3
2022-09-21T09:59:10.846Z,48.8
2022-09-21T10:00:14.069Z,47.4
2022-09-21T10:01:17.766Z,48
2022-09-21T10:02:21.064Z,47.2
2022-09-21T10:03:24.057Z,47.8
2022-09-21T10:04:28.090Z,48.1
2022-09-21T10:05:31.726Z,46.3
2022-09-21T10:06:34.798Z,46.7
2022-09-21T10:07:38.008Z,46.4
2022-09-21T10:08:41.772Z,45.5
2022-09-21T10:09:45.191Z,45.2
2022-09-21T10:10:48.427Z,45.6
2022-09-21T10:11:51.623Z,45.4
2022-09-21T10:12:56.021Z,46.3
2022-09-21T10:13:59.565Z,47.8
2022-09-21T10:15:02.293Z,47.1
2022-09-21T10:16:05.780Z,45.6
2022-09-21T10:17:09.828Z,46.1
2022-09-21T10:18:13.651Z,46.4
2022-09-21T10:19:17.371Z,46.2
2022-09-21T10:20:20.945Z,45
2022-09-21T10:21:24.254Z,45.1
2022-09-21T10:22:27.389Z,44
2022-09-21T10:23:29.920Z,44.4
2022-09-21T10:24:33.564Z,44.2
2022-09-21T10:25:41.286Z,44.5
2022-09-21T10:26:44.669Z,44.6
2022-09-21T10:27:48.142Z,45.1
2022-09-21T10:28:52.327Z,46.1
2022-09-21T10:29:55.694Z,45.2
2022-09-21T10:30:58.882Z,44.9
2022-09-21T10:32:02.300Z,44.9
2022-09-21T10:33:05.923Z,44.2
2022-09-21T10:34:09.420Z,44.6
2022-09-21T10:35:12.328Z,43.9
2022-09-21T10:36:15.309Z,43.8
2022-09-21T10:37:18.755Z,43.5
2022-09-21T10:38:23.889Z,44.3
2022-09-21T10:41:05.516Z,43.6
2022-09-21T10:42:08.530Z,43.5
2022-09-21T10:43:11.000Z,43.2
2022-09-21T10:44:14.807Z,43.7
2022-09-21T10:45:17.440Z,43.2
2022-09-21T10:46:20.582Z,43.9
2022-09-21T10:47:23.773Z,43.7
2022-09-21T10:48:26.683Z,43.6
2022-09-21T10:49:29.681Z,43.4
2022-09-21T10:50:32.635Z,44.1
2022-09-21T10:51:36.099Z,43.5
2022-09-21T10:52:39.350Z,42.1
2022-09-21T10:53:42.501Z,43.4
2022-09-21T10:54:46.234Z,43
2022-09-21T10:56:18.191Z,43
2022-09-21T10:57:21.587Z,42.1
2022-09-21T10:58:25.376Z,41.9
2022-09-21T10:59:29.135Z,40.9
2022-09-21T11:00:32.410Z,41.3
2022-09-21T11:01:35.547Z,40.9
2022-09-21T11:02:38.690Z,40
2022-09-21T11:03:41.993Z,41
2022-09-21T11:04:45.452Z,39.9
2022-09-21T11:05:48.460Z,40.4
2022-09-21T11:06:51.067Z,39.8
2022-09-21T11:07:54.081Z,39.2
2022-09-21T11:08:56.986Z,38.7
2022-09-21T11:09:59.002Z,38.5
2022-09-21T11:11:02.438Z,39.5
2022-09-21T11:12:04.611Z,38.8
2022-09-21T11:13:07.532Z,38
2022-09-21T11:14:10.515Z,37.8
2022-09-21T11:15:14.466Z,37.8
2022-09-21T11:16:17.358Z,37.5
2022-09-21T11:17:20.169Z,37.3
2022-09-21T11:18:23.534Z,37.7
2022-09-21T11:19:26.629Z,37.5
2022-09-21T11:20:29.524Z,37.4
2022-09-21T11:21:31.419Z,36.9
2022-09-21T11:22:34.113Z,36.8
2022-09-21T11:23:37.178Z,38
2022-09-21T11:24:40.071Z,38.5
2022-09-21T11:25:42.316Z,37.6
2022-09-21T11:26:44.753Z,37.4
2022-09-21T11:27:46.832Z,36.8
2022-09-21T11:28:50.563Z,37.3
2022-09-21T11:29:53.112Z,36.5
2022-09-21T11:30:57.076Z,35.8
2022-09-21T11:32:06.606Z,36.4
2022-09-21T11:33:10.228Z,36.4
2022-09-21T11:34:13.299Z,36.6
2022-09-21T11:35:16.753Z,35.5
2022-09-21T11:36:19.540Z,36.1
2022-09-21T11:37:23.044Z,36
2022-09-21T11:38:33.537Z,36.3
2022-09-21T11:39:45.832Z,36.2
2022-09-21T11:40:48.689Z,35.6
2022-09-21T11:41:51.309Z,35.5
2022-09-21T11:42:54.420Z,35.3
2022-09-21T11:44:04.355Z,35.8
2022-09-21T11:45:13.538Z,34.8
2022-09-21T11:46:17.669Z,34.2
2022-09-21T11:47:20.981Z,34
2022-09-21T11:48:24.455Z,34.4
2022-09-21T11:49:27.615Z,33.6
2022-09-21T11:50:33.053Z,34.3
2022-09-21T11:51:36.596Z,34.5
2022-09-21T11:52:39.752Z,34.4
2022-09-21T11:53:42.557Z,35.2
2022-09-21T11:54:45.359Z,35.2
2022-09-21T11:55:48.193Z,33.9
2022-09-21T11:56:51.542Z,33.7
2022-09-21T11:57:56.703Z,33.5
2022-09-21T11:58:59.352Z,34.2
2022-09-21T12:00:03.028Z,33.6
2022-09-21T12:01:06.064Z,34.6
2022-09-21T12:02:10.448Z,35
2022-09-21T12:03:14.315Z,33.8
2022-09-21T12:04:18.012Z,34.4
2022-09-21T12:05:21.072Z,35.4
2022-09-21T12:06:23.788Z,35.4
2022-09-21T12:07:26.655Z,34.4
2022-09-21T12:08:29.520Z,35.2
2022-09-21T12:09:33.014Z,34.9
2022-09-21T12:10:36.752Z,33.8
2022-09-21T12:11:39.909Z,32.1
2022-09-21T12:12:42.783Z,32.8
2022-09-21T12:13:46.216Z,33.3
2022-09-21T12:14:49.580Z,33.4
2022-09-21T12:15:52.010Z,33.5
2022-09-21T12:16:55.454Z,33.3
2022-09-21T12:17:59.883Z,32.6
2022-09-21T12:19:03.627Z,31.3
2022-09-21T12:20:07.449Z,30.8
2022-09-21T12:21:10.546Z,30.8
2022-09-21T12:22:13.732Z,30.5
2022-09-21T12:25:36.160Z,30
2022-09-21T12:26:39.516Z,28.8
2022-09-21T12:27:42.505Z,30.4
2022-09-21T12:28:45.842Z,31
2022-09-21T12:29:49.020Z,32.2
2022-09-21T12:30:51.881Z,33.4
2022-09-21T12:31:56.337Z,34.8
2022-09-21T12:33:00.147Z,35.7
2022-09-21T12:34:03.930Z,36.9
2022-09-21T12:35:06.913Z,37.3
2022-09-21T12:36:10.341Z,37.4
2022-09-21T12:37:13.907Z,37.1
2022-09-21T12:38:17.662Z,37
2022-09-21T12:39:20.812Z,35.6
2022-09-21T12:40:24.238Z,35.1
2022-09-21T12:41:28.251Z,34.2
2022-09-21T12:42:31.416Z,35.4
2022-09-21T12:43:34.137Z,36.9
2022-09-21T12:44:36.770Z,38.1
2022-09-21T12:45:41.081Z,38.5
2022-09-21T12:46:44.562Z,37.8
2022-09-21T12:47:47.992Z,38.3
2022-09-21T12:48:51.547Z,39
2022-09-21T12:49:55.354Z,39.1
2022-09-21T12:51:05.970Z,38.5
2022-09-21T12:52:09.446Z,38.2
2022-09-21T12:53:12.867Z,38.2
2022-09-21T12:54:16.035Z,38.1
2022-09-21T12:55:19.405Z,38.4
2022-09-21T12:56:22.829Z,39.2
2022-09-21T12:58:16.546Z,38.9
2022-09-21T12:59:20.339Z,38.9
2022-09-21T13:00:24.049Z,38.9
2022-09-21T13:01:28.074Z,38.4
2022-09-21T13:02:32.751Z,38.2
2022-09-21T13:03:37.170Z,38.2
2022-09-21T13:04:40.628Z,37.5
2022-09-21T13:05:44.507Z,37.4
2022-09-21T13:06:48.520Z,36.8
2022-09-21T13:07:52.315Z,37.9
2022-09-21T13:08:55.785Z,37.6
2022-09-21T13:09:59.240Z,38
2022-09-21T13:11:03.324Z,38.2
2022-09-21T13:12:05.872Z,38.9
2022-09-21T13:13:08.572Z,39.6
2022-09-21T13:14:11.918Z,38.4
2022-09-21T13:15:15.012Z,38.2
2022-09-21T13:16:18.642Z,37.7
2022-09-21T13:17:22.526Z,36.9
2022-09-21T13:18:25.605Z,37.8
2022-09-21T13:19:29.061Z,37.9
2022-09-21T13:20:32.186Z,37.8
2022-09-21T13:21:36.068Z,36.6
2022-09-21T13:22:39.524Z,36.5
2022-09-21T13:23:42.813Z,36.5
2022-09-21T13:24:46.611Z,36.4
2022-09-21T13:25:50.596Z,36.8
2022-09-21T13:26:53.763Z,36.8
2022-09-21T13:27:57.131Z,36.1
2022-09-21T13:28:59.998Z,36.8
2022-09-21T13:30:03.181Z,37.1
2022-09-21T13:31:45.126Z,37.1
2022-09-21T13:32:48.108Z,36.7
2022-09-21T13:33:51.270Z,36.6
2022-09-21T13:37:53.288Z,37
2022-09-21T13:38:56.969Z,37.7
2022-09-21T13:39:59.735Z,36.8
2022-09-21T13:41:03.049Z,36.9
2022-09-21T13:42:06.290Z,37.3
2022-09-21T13:43:08.805Z,36.6
2022-09-21T13:44:13.064Z,36.2
2022-09-21T13:45:15.581Z,35.9
2022-09-21T13:46:19.530Z,35.9
2022-09-21T13:47:23.197Z,36.1
2022-09-21T13:48:27.004Z,35.8
2022-09-21T13:49:30.732Z,36.2
2022-09-21T13:50:33.516Z,35.9
2022-09-21T13:51:36.583Z,35.4
2022-09-21T13:52:40.002Z,34.8
2022-09-21T13:53:43.969Z,35.3
2022-09-21T13:54:47.398Z,34.9
2022-09-21T13:55:50.678Z,34.3
2022-09-21T13:56:53.841Z,34.9
2022-09-21T13:57:56.626Z,35.3
2022-09-21T13:58:59.589Z,35.5
2022-09-21T14:00:02.737Z,34.7
2022-09-21T14:01:05.600Z,35.3
2022-09-21T14:02:10.418Z,35.5
2022-09-21T14:03:14.191Z,35.7
2022-09-21T14:04:17.320Z,35.7
2022-09-21T14:05:20.471Z,35.4
2022-09-21T14:06:23.553Z,35.4
2022-09-21T14:07:26.627Z,35.9
2022-09-21T14:08:29.953Z,34.3
2022-09-21T14:09:34.250Z,34.6
2022-09-21T14:10:37.928Z,34.8
2022-09-21T14:11:40.809Z,34.6
2022-09-21T14:12:44.234Z,34.1
2022-09-21T14:13:47.222Z,34.2
2022-09-21T14:14:50.862Z,33.9
2022-09-21T14:15:54.678Z,33.3
2022-09-21T14:16:57.696Z,33.1
2022-09-21T14:18:00.770Z,32.9
2022-09-21T14:19:03.870Z,33.7
2022-09-21T14:20:07.315Z,32.4
2022-09-21T14:21:10.107Z,32.6
2022-09-21T14:22:13.564Z,31.4
2022-09-21T14:23:16.746Z,31.6
2022-09-21T14:24:19.894Z,31.1
2022-09-21T14:25:24.055Z,31
2022-09-21T14:26:29.063Z,31
2022-09-21T14:27:32.565Z,30.3
2022-09-21T14:28:35.934Z,30.6
2022-09-21T14:29:39.089Z,30.5
2022-09-21T14:30:42.444Z,30.7
2022-09-21T14:31:45.715Z,30